createdAt,value
2022-12-03T00:01:01.041Z,104.90
2022-12-03T00:03:29.727Z,97.30
2022-12-03T00:05:57.738Z,93.90
2022-12-03T00:08:25.568Z,96.60
2022-12-03T00:10:53.482Z,97.80
2022-12-03T00:13:21.650Z,92.40
2022-12-03T00:15:49.739Z,98.40
2022-12-03T00:18:17.890Z,88.10
2022-12-03T00:20:45.849Z,95.10
2022-12-03T00:23:13.662Z,99.30
2022-12-03T00:25:41.595Z,96.10
2022-12-03T00:28:09.470Z,101.20
2022-12-03T00:30:37.332Z,115.60
2022-12-03T00:33:05.298Z,100.80
2022-12-03T00:35:33.360Z,98.10
2022-12-03T00:38:01.226Z,104.30
2022-12-03T00:40:29.377Z,96.80
2022-12-03T00:42:57.296Z,101.60
2022-12-03T00:45:25.237Z,94.80
2022-12-03T00:47:53.204Z,98.40
2022-12-03T00:50:21.173Z,99.60
2022-12-03T00:52:49.939Z,98.30
2022-12-03T00:55:17.895Z,98.50
2022-12-03T00:57:45.991Z,100.50
2022-12-03T01:00:14.684Z,105.80
2022-12-03T01:02:42.970Z,102.30
2022-12-03T01:05:11.429Z,110.60
2022-12-03T01:07:39.889Z,101.40
2022-12-03T01:10:08.305Z,109.60
2022-12-03T01:12:36.140Z,117.00
2022-12-03T01:15:05.657Z,116.90
2022-12-03T01:17:33.548Z,117.80
2022-12-03T01:20:03.965Z,112.10
2022-12-03T01:22:32.031Z,127.50
2022-12-03T01:25:00.212Z,127.10
2022-12-03T01:27:28.158Z,115.60
2022-12-03T01:29:56.050Z,111.30
2022-12-03T01:32:23.839Z,119.10
2022-12-03T01:34:53.865Z,108.50
2022-12-03T01:37:24.890Z,108.10
2022-12-03T01:39:53.023Z,108.00
2022-12-03T01:42:27.567Z,114.00
2022-12-03T01:44:58.417Z,119.40
2022-12-03T01:47:31.820Z,111.60
2022-12-03T01:50:15.735Z,107.40
2022-12-03T01:52:44.316Z,111.70
2022-12-03T01:55:16.587Z,110.20
2022-12-03T01:57:53.875Z,112.90
2022-12-03T02:00:26.976Z,158.30
2022-12-03T02:03:01.076Z,244.20
2022-12-03T02:05:31.349Z,213.00
2022-12-03T02:08:00.471Z,207.80
2022-12-03T02:10:32.816Z,162.50
2022-12-03T02:13:06.608Z,164.60
2022-12-03T02:15:36.072Z,139.00
2022-12-03T02:18:04.345Z,119.40
2022-12-03T02:20:37.080Z,122.60
2022-12-03T02:23:12.196Z,118.10
2022-12-03T02:25:40.019Z,115.90
2022-12-03T02:28:09.644Z,111.20
2022-12-03T02:30:37.795Z,120.10
2022-12-03T02:33:05.803Z,122.90
2022-12-03T02:35:36.718Z,113.90
2022-12-03T02:38:18.607Z,117.80
2022-12-03T02:40:49.341Z,115.90
2022-12-03T02:43:19.641Z,120.40
2022-12-03T02:45:51.669Z,123.50
2022-12-03T02:48:24.204Z,118.10
2022-12-03T02:50:55.921Z,125.10
2022-12-03T02:53:28.795Z,127.60
2022-12-03T02:55:59.553Z,118.60
2022-12-03T02:58:31.271Z,113.00
2022-12-03T03:01:00.989Z,132.50
2022-12-03T03:03:30.993Z,133.90
2022-12-03T03:06:02.357Z,135.20
2022-12-03T03:08:31.402Z,132.40
2022-12-03T03:11:01.563Z,122.20
2022-12-03T03:13:31.345Z,128.60
2022-12-03T03:15:59.746Z,117.70
2022-12-03T03:18:27.862Z,123.60
2022-12-03T03:20:55.957Z,116.70
2022-12-03T03:23:24.916Z,115.20
2022-12-03T03:26:11.549Z,124.00
2022-12-03T03:28:43.076Z,121.70
2022-12-03T03:31:14.300Z,117.70
2022-12-03T03:33:45.668Z,180.80
2022-12-03T03:36:15.360Z,178.10
2022-12-03T03:38:44.248Z,192.40
2022-12-03T03:41:13.442Z,188.80
2022-12-03T03:43:43.176Z,192.20
2022-12-03T03:46:12.358Z,198.80
2022-12-03T03:48:42.658Z,218.40
2022-12-03T03:51:12.652Z,236.60
2022-12-03T03:53:44.308Z,253.40
2022-12-03T03:56:12.565Z,239.80
2022-12-03T03:58:41.159Z,238.20
2022-12-03T04:01:11.409Z,223.70
2022-12-03T04:03:39.894Z,200.50
2022-12-03T04:06:09.164Z,175.50
2022-12-03T04:08:37.061Z,168.80
2022-12-03T04:11:23.802Z,167.50
2022-12-03T04:13:51.948Z,170.90
2022-12-03T04:16:19.917Z,188.70
2022-12-03T04:18:48.255Z,211.40
2022-12-03T04:21:40.870Z,242.10
2022-12-03T04:24:10.402Z,249.90
2022-12-03T04:26:57.107Z,256.20
2022-12-03T04:29:25.162Z,231.70
2022-12-03T04:32:11.639Z,144.70
2022-12-03T04:34:58.109Z,113.50
2022-12-03T04:37:26.055Z,109.00
2022-12-03T04:39:53.983Z,100.60
2022-12-03T04:42:22.140Z,154.40
2022-12-03T04:44:50.511Z,271.80
2022-12-03T04:47:20.870Z,383.30
2022-12-03T04:49:51.349Z,526.70
2022-12-03T04:52:20.583Z,538.90
2022-12-03T04:54:48.646Z,498.40
2022-12-03T04:57:17.441Z,383.10
2022-12-03T04:59:45.364Z,303.10
2022-12-03T05:02:13.271Z,251.60
2022-12-03T05:04:42.122Z,195.80
2022-12-03T05:07:11.430Z,187.90
2022-12-03T05:09:39.378Z,190.40
2022-12-03T05:12:07.551Z,165.90
2022-12-03T05:14:36.889Z,152.00
2022-12-03T05:17:05.011Z,166.00
2022-12-03T05:19:51.537Z,183.20
2022-12-03T05:22:19.424Z,180.90
2022-12-03T05:24:47.305Z,171.20
2022-12-03T05:27:18.859Z,180.50
2022-12-03T05:29:51.645Z,172.70
2022-12-03T05:32:20.070Z,178.80
2022-12-03T05:34:48.054Z,173.70
2022-12-03T05:37:16.110Z,170.10
2022-12-03T05:39:44.295Z,150.80
2022-12-03T05:42:31.422Z,157.30
2022-12-03T05:44:59.363Z,154.30
2022-12-03T05:47:27.338Z,155.60
2022-12-03T05:49:55.204Z,128.80
2022-12-03T05:52:22.968Z,119.40
2022-12-03T05:54:50.928Z,117.70
2022-12-03T05:57:19.136Z,124.90
2022-12-03T05:59:46.908Z,114.80
2022-12-03T06:02:14.807Z,116.50
2022-12-03T06:04:42.902Z,127.90
2022-12-03T06:07:13.939Z,127.10
2022-12-03T06:09:42.250Z,132.80
2022-12-03T06:12:10.157Z,145.50
2022-12-03T06:14:38.237Z,141.60
2022-12-03T06:17:06.031Z,134.30
2022-12-03T06:19:34.816Z,129.20
2022-12-03T06:22:02.602Z,126.70
2022-12-03T06:24:30.518Z,114.90
2022-12-03T06:26:58.382Z,115.50
2022-12-03T06:29:26.234Z,116.00
2022-12-03T06:31:54.138Z,112.30
2022-12-03T06:34:22.122Z,111.90
2022-12-03T06:36:50.397Z,104.00
2022-12-03T06:39:18.571Z,95.20
2022-12-03T06:41:46.519Z,103.60
2022-12-03T06:44:15.121Z,107.70
2022-12-03T06:46:43.232Z,109.40
2022-12-03T06:49:11.102Z,104.40
2022-12-03T06:51:39.568Z,123.20
2022-12-03T06:54:07.560Z,135.40
2022-12-03T06:56:40.419Z,133.50
2022-12-03T06:59:13.601Z,125.90
2022-12-03T07:01:41.656Z,141.40
2022-12-03T07:04:09.988Z,130.60
2022-12-03T07:06:37.905Z,138.00
2022-12-03T07:09:05.778Z,128.10
2022-12-03T07:11:39.734Z,127.70
2022-12-03T07:14:11.477Z,115.50
2022-12-03T07:16:40.074Z,121.40
2022-12-03T07:19:08.149Z,111.00
2022-12-03T07:21:36.037Z,112.80
2022-12-03T07:24:04.131Z,103.80
2022-12-03T07:26:32.530Z,96.70
2022-12-03T07:29:00.468Z,103.40
2022-12-03T07:31:28.584Z,116.70
2022-12-03T07:33:56.714Z,107.70
2022-12-03T07:36:24.645Z,116.30
2022-12-03T07:38:52.481Z,134.20
2022-12-03T07:41:20.366Z,122.00
2022-12-03T07:43:48.404Z,138.60
2022-12-03T07:46:18.751Z,136.80
2022-12-03T07:48:46.726Z,137.90
2022-12-03T07:51:15.567Z,133.80
2022-12-03T07:53:43.704Z,127.70
2022-12-03T07:56:11.749Z,125.00
2022-12-03T07:58:39.792Z,114.70
2022-12-03T08:01:07.919Z,114.50
2022-12-03T08:03:36.224Z,100.30
2022-12-03T08:06:04.364Z,90.70
2022-12-03T08:08:32.267Z,80.70
2022-12-03T08:11:02.136Z,76.00
2022-12-03T08:13:30.460Z,71.50
2022-12-03T08:16:02.123Z,65.00
2022-12-03T08:18:30.093Z,65.80
2022-12-03T08:20:58.406Z,61.20
2022-12-03T08:23:26.526Z,58.70
2022-12-03T08:25:54.582Z,63.90
2022-12-03T08:28:26.639Z,54.10
2022-12-03T08:31:02.583Z,49.70
2022-12-03T08:33:35.254Z,56.70
2022-12-03T08:36:30.725Z,55.40
2022-12-03T08:39:23.169Z,51.30
2022-12-03T08:42:15.259Z,47.20
2022-12-03T08:44:43.128Z,48.70
2022-12-03T08:47:17.126Z,46.80
2022-12-03T08:49:54.476Z,51.90
2022-12-03T08:52:31.391Z,49.70
2022-12-03T08:55:02.826Z,52.70
2022-12-03T08:57:34.579Z,47.50
2022-12-03T09:00:15.540Z,52.30
2022-12-03T09:02:47.517Z,49.40
2022-12-03T09:05:26.396Z,56.00
2022-12-03T09:07:54.499Z,53.20
2022-12-03T09:10:22.546Z,45.50
2022-12-03T09:12:50.514Z,39.00
2022-12-03T09:15:18.339Z,37.30
2022-12-03T09:17:46.203Z,35.70
2022-12-03T09:20:14.188Z,35.80
2022-12-03T09:22:42.287Z,44.50
2022-12-03T09:25:10.460Z,35.80
2022-12-03T09:27:38.297Z,36.70
2022-12-03T09:30:06.849Z,37.30
2022-12-03T09:32:34.827Z,38.60
2022-12-03T09:35:04.952Z,37.10
2022-12-03T09:37:32.853Z,39.30
2022-12-03T09:40:01.028Z,38.90
2022-12-03T09:42:28.955Z,40.80
2022-12-03T09:44:57.085Z,37.90
2022-12-03T09:47:25.502Z,34.80
2022-12-03T09:49:53.958Z,39.90
2022-12-03T09:52:28.957Z,39.60
2022-12-03T09:54:58.560Z,45.50
2022-12-03T09:57:26.769Z,44.10
2022-12-03T09:59:58.871Z,40.40
2022-12-03T10:02:30.044Z,40.70
2022-12-03T10:04:58.483Z,42.20
2022-12-03T10:07:26.658Z,42.30
2022-12-03T10:09:54.903Z,37.00
2022-12-03T10:12:25.105Z,40.00
2022-12-03T10:14:54.315Z,40.60
2022-12-03T10:17:22.590Z,44.00
2022-12-03T10:19:50.621Z,42.50
2022-12-03T10:22:18.704Z,44.90
2022-12-03T10:25:04.055Z,49.10
2022-12-03T10:27:33.218Z,49.80
2022-12-03T10:30:04.773Z,41.10
2022-12-03T10:32:45.508Z,46.30
2022-12-03T10:35:21.036Z,43.80
2022-12-03T10:37:59.835Z,41.80
2022-12-03T10:40:33.609Z,41.30
2022-12-03T10:43:15.545Z,43.60
2022-12-03T10:45:48.277Z,40.60
2022-12-03T10:48:19.357Z,45.70
2022-12-03T10:50:52.100Z,45.60
2022-12-03T10:53:22.504Z,43.00
2022-12-03T10:55:52.494Z,40.20
2022-12-03T10:58:26.195Z,35.10
2022-12-03T11:00:56.442Z,35.20
2022-12-03T11:03:30.768Z,36.80
2022-12-03T11:06:01.664Z,34.80
2022-12-03T11:08:34.195Z,34.50
2022-12-03T11:11:06.984Z,40.20
2022-12-03T11:13:34.783Z,43.90
2022-12-03T11:16:05.787Z,32.40
2022-12-03T11:21:09.109Z,28.60
2022-12-03T11:23:46.757Z,28.00
2022-12-03T11:26:19.650Z,29.20
2022-12-03T11:28:47.864Z,24.70
2022-12-03T11:31:38.367Z,24.40
2022-12-03T11:34:31.549Z,31.20
2022-12-03T11:37:10.071Z,26.70
2022-12-03T11:39:55.654Z,27.90
2022-12-03T11:42:26.628Z,22.30
2022-12-03T11:47:39.766Z,23.30
2022-12-03T11:50:20.898Z,22.30
2022-12-03T11:55:33.098Z,23.70
2022-12-03T11:58:15.260Z,23.30
2022-12-03T12:00:55.312Z,37.50
2022-12-03T12:03:24.810Z,46.80
2022-12-03T12:06:19.288Z,46.10
2022-12-03T12:08:49.852Z,53.40
2022-12-03T12:11:19.347Z,53.20
2022-12-03T12:13:47.201Z,57.00
2022-12-03T12:16:56.028Z,64.90
2022-12-03T12:19:49.748Z,63.50
2022-12-03T12:22:29.825Z,65.80
2022-12-03T12:24:59.065Z,65.00
2022-12-03T12:27:37.757Z,65.30
2022-12-03T12:30:10.026Z,60.10
2022-12-03T12:32:47.184Z,65.80
2022-12-03T12:35:17.232Z,70.30
2022-12-03T12:38:01.060Z,62.90
2022-12-03T12:40:32.359Z,71.30
2022-12-03T12:43:10.244Z,67.20
2022-12-03T12:45:42.861Z,66.40
2022-12-03T12:48:31.401Z,67.60
2022-12-03T12:51:20.818Z,65.40
2022-12-03T12:53:50.232Z,59.60
2022-12-03T12:56:25.030Z,58.80
2022-12-03T12:58:53.954Z,58.60
2022-12-03T13:01:32.696Z,69.50
2022-12-03T13:04:00.795Z,59.10
2022-12-03T13:06:32.020Z,47.80
2022-12-03T13:09:02.475Z,54.90
2022-12-03T13:11:45.628Z,55.80
2022-12-03T13:14:31.532Z,56.40
2022-12-03T13:17:02.105Z,57.80
2022-12-03T13:19:43.302Z,49.30
2022-12-03T13:22:22.406Z,52.90
2022-12-03T13:24:52.019Z,53.40
2022-12-03T13:27:19.966Z,51.40
2022-12-03T13:29:53.621Z,51.70
2022-12-03T13:32:27.722Z,50.20
2022-12-03T13:35:02.530Z,50.00
2022-12-03T13:37:32.056Z,49.20
2022-12-03T13:40:12.662Z,47.40
2022-12-03T13:42:45.191Z,46.70
2022-12-03T13:45:19.160Z,51.20
2022-12-03T13:47:49.460Z,51.10
2022-12-03T13:50:35.763Z,51.90
2022-12-03T13:53:28.469Z,56.20
2022-12-03T13:56:31.783Z,56.30
2022-12-03T13:59:01.228Z,63.40
2022-12-03T14:01:29.228Z,71.00
2022-12-03T14:03:57.442Z,65.30
2022-12-03T14:06:25.257Z,66.70
2022-12-03T14:08:53.509Z,66.20
2022-12-03T14:11:40.175Z,66.90
2022-12-03T14:14:08.203Z,66.00
2022-12-03T14:16:36.090Z,63.80
2022-12-03T14:19:04.246Z,67.70
2022-12-03T14:21:32.212Z,59.70
2022-12-03T14:24:00.194Z,59.80
2022-12-03T14:26:28.101Z,59.50
2022-12-03T14:28:56.186Z,59.90
2022-12-03T14:31:24.427Z,63.90
2022-12-03T14:33:52.739Z,57.70
2022-12-03T14:36:20.912Z,63.10
2022-12-03T14:38:48.780Z,63.50
2022-12-03T14:41:35.453Z,73.90
2022-12-03T14:44:03.464Z,66.40
2022-12-03T14:46:34.036Z,69.90
2022-12-03T14:49:01.966Z,68.80
2022-12-03T14:51:30.027Z,76.70
2022-12-03T14:53:57.867Z,87.90
2022-12-03T14:56:25.840Z,82.10
2022-12-03T14:58:53.842Z,79.40
2022-12-03T15:01:21.822Z,79.80
2022-12-03T15:03:49.806Z,82.10
2022-12-03T15:06:17.731Z,84.20
2022-12-03T15:08:45.615Z,90.10
2022-12-03T15:11:13.569Z,81.50
2022-12-03T15:13:41.383Z,80.70
2022-12-03T15:16:09.300Z,73.80
2022-12-03T15:18:37.268Z,66.60
2022-12-03T15:21:05.752Z,69.30
2022-12-03T15:23:34.905Z,70.90
2022-12-03T15:26:03.515Z,70.60
2022-12-03T15:28:31.408Z,70.80
2022-12-03T15:30:59.305Z,65.00
2022-12-03T15:33:27.587Z,74.70
2022-12-03T15:35:55.445Z,73.30
2022-12-03T15:38:23.387Z,68.80
2022-12-03T15:40:51.330Z,66.50
2022-12-03T15:43:19.301Z,77.10
2022-12-03T15:45:47.226Z,77.50
2022-12-03T15:48:15.144Z,86.60
2022-12-03T15:50:43.004Z,97.40
2022-12-03T15:53:10.806Z,144.30
2022-12-03T15:55:38.650Z,134.80
2022-12-03T15:58:06.679Z,135.70
2022-12-03T16:00:34.534Z,153.10
2022-12-03T16:03:02.464Z,164.10
2022-12-03T16:05:30.454Z,190.20
2022-12-03T16:07:58.626Z,440.60
2022-12-03T16:10:26.553Z,308.70
2022-12-03T16:12:54.418Z,276.80
2022-12-03T16:15:27.048Z,349.60
2022-12-03T16:17:55.568Z,317.90
2022-12-03T16:20:23.434Z,198.60
2022-12-03T16:22:52.152Z,182.50
2022-12-03T16:25:20.040Z,166.60
2022-12-03T16:27:47.960Z,155.00
2022-12-03T16:30:16.095Z,144.40
2022-12-03T16:32:43.916Z,153.70
2022-12-03T16:35:11.848Z,157.20
2022-12-03T16:37:39.775Z,172.00
2022-12-03T16:40:08.576Z,214.60
2022-12-03T16:42:37.438Z,221.30
2022-12-03T16:45:10.328Z,215.10
2022-12-03T16:47:38.397Z,227.10
2022-12-03T16:50:11.564Z,228.70
2022-12-03T16:52:42.460Z,232.00
2022-12-03T16:55:10.474Z,228.50
2022-12-03T16:57:38.469Z,251.70
2022-12-03T17:00:07.685Z,267.10
2022-12-03T17:02:35.647Z,223.30
2022-12-03T17:05:03.728Z,209.50
2022-12-03T17:07:31.734Z,203.00
2022-12-03T17:09:59.709Z,196.40
2022-12-03T17:12:37.452Z,184.30
2022-12-03T17:15:15.513Z,207.00
2022-12-03T17:17:43.483Z,228.20
2022-12-03T17:20:13.384Z,250.30
2022-12-03T17:22:41.869Z,234.30
2022-12-03T17:25:10.972Z,206.20
2022-12-03T17:27:44.813Z,187.40
2022-12-03T17:30:13.919Z,187.50
2022-12-03T17:32:42.183Z,180.40
2022-12-03T17:35:11.380Z,170.10
2022-12-03T17:37:40.710Z,149.00
2022-12-03T17:40:11.415Z,150.90
2022-12-03T17:42:39.653Z,158.40
2022-12-03T17:45:08.757Z,162.10
2022-12-03T17:47:36.692Z,157.90
2022-12-03T17:50:05.504Z,174.40
2022-12-03T17:52:33.682Z,164.00
2022-12-03T17:55:11.894Z,164.70
2022-12-03T17:57:42.520Z,164.00
2022-12-03T18:00:11.568Z,159.40
2022-12-03T18:02:43.001Z,178.10
2022-12-03T18:05:10.975Z,164.20
2022-12-03T18:07:38.936Z,129.60
2022-12-03T18:10:07.605Z,122.30
2022-12-03T18:12:35.469Z,118.90
2022-12-03T18:15:03.873Z,109.80
2022-12-03T18:17:31.825Z,91.80
2022-12-03T18:19:59.663Z,82.60
2022-12-03T18:22:28.344Z,73.40
2022-12-03T18:24:56.691Z,72.60
2022-12-03T18:27:25.122Z,60.10
2022-12-03T18:29:53.332Z,61.70
2022-12-03T18:32:28.883Z,61.00
2022-12-03T18:34:58.456Z,60.70
2022-12-03T18:37:28.667Z,53.80
2022-12-03T18:39:58.238Z,61.70
2022-12-03T18:42:26.794Z,61.40
2022-12-03T18:44:56.605Z,59.20
2022-12-03T18:47:28.542Z,66.20
2022-12-03T18:49:57.229Z,58.80
2022-12-03T18:52:26.189Z,63.80
2022-12-03T18:54:55.440Z,63.80
2022-12-03T18:57:24.080Z,67.10
2022-12-03T18:59:52.148Z,63.40
2022-12-03T19:02:54.154Z,59.00
2022-12-03T19:05:12.009Z,59.20
2022-12-03T19:07:40.118Z,59.20
2022-12-03T19:10:09.008Z,60.80
2022-12-03T19:12:37.792Z,62.30
2022-12-03T19:15:06.731Z,63.00
2022-12-03T19:17:34.649Z,61.70
2022-12-03T19:20:02.487Z,59.00
2022-12-03T19:22:30.304Z,58.10
2022-12-03T19:24:58.360Z,53.40
2022-12-03T19:27:26.359Z,59.80
2022-12-03T19:29:54.354Z,66.40
2022-12-03T19:32:22.511Z,60.50
2022-12-03T19:34:50.438Z,58.40
2022-12-03T19:37:18.243Z,53.90
2022-12-03T19:39:46.588Z,56.10
2022-12-03T19:42:14.392Z,54.70
2022-12-03T19:44:42.247Z,52.90
2022-12-03T19:47:10.198Z,47.30
2022-12-03T19:49:38.207Z,48.90
2022-12-03T19:52:06.029Z,57.90
2022-12-03T19:54:33.890Z,50.80
2022-12-03T19:57:01.862Z,48.70
2022-12-03T19:59:29.841Z,51.30
2022-12-03T20:01:57.892Z,46.90
2022-12-03T20:04:26.630Z,46.60
2022-12-03T20:06:54.739Z,45.90
2022-12-03T20:09:22.713Z,48.20
2022-12-03T20:11:51.319Z,48.00
2022-12-03T20:14:19.833Z,47.30
2022-12-03T20:16:48.673Z,42.80
2022-12-03T20:19:17.959Z,49.50
2022-12-03T20:21:45.940Z,51.30
2022-12-03T20:24:16.103Z,55.60
2022-12-03T20:26:44.155Z,51.80
2022-12-03T20:29:12.504Z,48.70
2022-12-03T20:31:40.561Z,50.10
2022-12-03T20:34:10.530Z,47.90
2022-12-03T20:36:39.376Z,55.70
2022-12-03T20:39:08.110Z,47.60
2022-12-03T20:41:37.017Z,50.60
2022-12-03T20:44:07.597Z,53.80
2022-12-03T20:46:36.432Z,47.50
2022-12-03T20:49:05.701Z,45.00
2022-12-03T20:51:33.780Z,46.90
2022-12-03T20:54:02.685Z,44.80
2022-12-03T20:56:33.181Z,47.60
2022-12-03T20:59:04.911Z,50.20
2022-12-03T21:01:33.718Z,46.00
2022-12-03T21:04:04.166Z,49.60
2022-12-03T21:06:34.253Z,53.20
2022-12-03T21:09:05.754Z,52.60
2022-12-03T21:11:35.924Z,51.90
2022-12-03T21:14:04.213Z,62.40
2022-12-03T21:19:23.972Z,68.50
2022-12-03T21:21:51.974Z,60.80
2022-12-03T21:24:19.912Z,70.90
2022-12-03T21:26:47.902Z,68.90
2022-12-03T21:29:16.687Z,60.90
2022-12-03T21:31:44.655Z,86.40
2022-12-03T21:34:12.729Z,81.50
2022-12-03T21:36:40.797Z,65.30
2022-12-03T21:39:08.972Z,66.30
2022-12-03T21:41:36.879Z,75.40
2022-12-03T21:44:04.799Z,94.80
2022-12-03T21:47:10.665Z,85.00
2022-12-03T21:49:20.916Z,91.80
2022-12-03T21:51:49.193Z,86.20
2022-12-03T21:54:17.139Z,85.70
2022-12-03T21:56:45.033Z,86.80
2022-12-03T21:59:13.073Z,87.70
2022-12-03T22:01:46.771Z,89.80
2022-12-03T22:04:15.388Z,84.80
2022-12-03T22:06:43.246Z,78.10
2022-12-03T22:09:11.203Z,84.10
2022-12-03T22:11:39.186Z,83.20
2022-12-03T22:14:08.604Z,70.50
2022-12-03T22:16:36.494Z,84.90
2022-12-03T22:19:04.538Z,75.30
2022-12-03T22:21:32.506Z,71.50
2022-12-03T22:24:00.360Z,67.50
2022-12-03T22:26:28.278Z,61.50
2022-12-03T22:28:56.169Z,68.20
2022-12-03T22:31:24.128Z,64.20
2022-12-03T22:33:52.336Z,60.40
2022-12-03T22:36:21.780Z,61.20
2022-12-03T22:38:51.344Z,58.80
2022-12-03T22:41:19.832Z,56.40
2022-12-03T22:43:49.818Z,59.40
2022-12-03T22:46:17.830Z,59.30
2022-12-03T22:48:47.054Z,52.30
2022-12-03T22:51:19.461Z,54.10
2022-12-03T22:53:48.578Z,53.90
2022-12-03T22:56:17.358Z,58.90
2022-12-03T22:58:45.342Z,63.60
2022-12-03T23:01:40.549Z,61.40
2022-12-03T23:04:08.915Z,66.00
2022-12-03T23:06:37.917Z,62.90
2022-12-03T23:09:07.347Z,56.60
2022-12-03T23:11:36.346Z,64.60
2022-12-03T23:14:04.897Z,60.10
2022-12-03T23:16:34.269Z,62.90
2022-12-03T23:19:03.796Z,59.50
2022-12-03T23:21:34.659Z,61.10
2022-12-03T23:24:05.644Z,58.10
2022-12-03T23:29:04.277Z,58.20
2022-12-03T23:31:33.319Z,56.80
2022-12-03T23:34:01.958Z,72.70
2022-12-03T23:36:32.478Z,67.10
2022-12-03T23:39:00.856Z,62.10
2022-12-03T23:41:28.838Z,65.70
2022-12-03T23:43:57.621Z,67.30
2022-12-03T23:46:27.797Z,65.10
2022-12-03T23:48:58.679Z,57.30
2022-12-03T23:51:26.946Z,53.70
2022-12-03T23:53:55.944Z,53.50
2022-12-03T23:56:27.514Z,54.50
2022-12-03T23:58:57.275Z,53.60
